sensor_id;sensor_type;location;lat;lon;timestamp;pressure;altitude;pressure_sealevel;temperature;humidity
9746;BME280;4912;50.836;12.958;2023-02-01T00:02:28;97728.41;;;5.63;89.98
9746;BME280;4912;50.836;12.958;2023-02-01T00:04:59;97719.97;;;5.57;89.83
9746;BME280;4912;50.836;12.958;2023-02-01T00:07:29;97722.28;;;5.59;89.97
9746;BME280;4912;50.836;12.958;2023-02-01T00:09:59;97726.53;;;5.60;89.61
9746;BME280;4912;50.836;12.958;2023-02-01T00:12:30;97733.56;;;5.61;88.51
9746;BME280;4912;50.836;12.958;2023-02-01T00:15:01;97722.91;;;5.50;89.12
9746;BME280;4912;50.836;12.958;2023-02-01T00:17:34;97721.91;;;5.44;88.64
9746;BME280;4912;50.836;12.958;2023-02-01T00:20:06;97716.09;;;5.55;88.75
9746;BME280;4912;50.836;12.958;2023-02-01T00:22:37;97718.78;;;5.71;88.21
9746;BME280;4912;50.836;12.958;2023-02-01T00:25:08;97727.75;;;5.71;87.46
9746;BME280;4912;50.836;12.958;2023-02-01T00:27:39;97721.53;;;5.71;87.04
9746;BME280;4912;50.836;12.958;2023-02-01T00:30:10;97735.88;;;5.62;86.28
9746;BME280;4912;50.836;12.958;2023-02-01T00:32:44;97739.44;;;5.75;86.63
9746;BME280;4912;50.836;12.958;2023-02-01T00:35:15;97744.34;;;5.68;85.38
9746;BME280;4912;50.836;12.958;2023-02-01T00:37:45;97729.63;;;5.62;85.06
9746;BME280;4912;50.836;12.958;2023-02-01T00:40:16;97728.75;;;5.65;85.35
9746;BME280;4912;50.836;12.958;2023-02-01T00:42:46;97735.31;;;5.55;83.49
9746;BME280;4912;50.836;12.958;2023-02-01T00:45:17;97735.53;;;5.60;83.08
9746;BME280;4912;50.836;12.958;2023-02-01T00:47:50;97729.94;;;5.51;83.25
9746;BME280;4912;50.836;12.958;2023-02-01T00:50:20;97732.91;;;5.57;83.44
9746;BME280;4912;50.836;12.958;2023-02-01T00:52:51;97739.75;;;5.65;83.38
9746;BME280;4912;50.836;12.958;2023-02-01T00:55:21;97730.50;;;5.59;83.41
9746;BME280;4912;50.836;12.958;2023-02-01T00:57:51;97736.19;;;5.52;83.47
9746;BME280;4912;50.836;12.958;2023-02-01T01:00:22;97737.41;;;5.51;83.58
9746;BME280;4912;50.836;12.958;2023-02-01T01:02:55;97738.03;;;5.42;83.89
9746;BME280;4912;50.836;12.958;2023-02-01T01:05:26;97736.28;;;5.48;83.98
9746;BME280;4912;50.836;12.958;2023-02-01T01:07:57;97746.75;;;5.53;83.59
9746;BME280;4912;50.836;12.958;2023-02-01T01:10:27;97744.84;;;5.50;82.89
9746;BME280;4912;50.836;12.958;2023-02-01T01:12:57;97736.84;;;5.56;82.37
9746;BME280;4912;50.836;12.958;2023-02-01T01:15:28;97742.66;;;5.45;82.02
9746;BME280;4912;50.836;12.958;2023-02-01T01:18:01;97735.19;;;5.46;82.14
9746;BME280;4912;50.836;12.958;2023-02-01T01:20:33;97742.53;;;5.49;81.89
9746;BME280;4912;50.836;12.958;2023-02-01T01:23:05;97750.88;;;5.45;81.29
9746;BME280;4912;50.836;12.958;2023-02-01T01:25:36;97738.25;;;5.35;81.34
9746;BME280;4912;50.836;12.958;2023-02-01T01:28:07;97739.25;;;5.41;81.46
9746;BME280;4912;50.836;12.958;2023-02-01T01:30:38;97742.75;;;5.42;81.03
9746;BME280;4912;50.836;12.958;2023-02-01T01:33:11;97732.66;;;5.39;80.66
9746;BME280;4912;50.836;12.958;2023-02-01T01:35:41;97744.63;;;5.45;80.54
9746;BME280;4912;50.836;12.958;2023-02-01T01:38:12;97738.41;;;5.57;80.24
9746;BME280;4912;50.836;12.958;2023-02-01T01:40:45;97740.16;;;5.63;79.07
9746;BME280;4912;50.836;12.958;2023-02-01T01:43:18;97748.84;;;5.62;79.10
9746;BME280;4912;50.836;12.958;2023-02-01T01:45:51;97736.50;;;5.54;78.73
9746;BME280;4912;50.836;12.958;2023-02-01T01:48:25;97732.25;;;5.53;78.72
9746;BME280;4912;50.836;12.958;2023-02-01T01:51:01;97741.56;;;5.55;78.33
9746;BME280;4912;50.836;12.958;2023-02-01T01:53:38;97736.09;;;5.55;77.96
9746;BME280;4912;50.836;12.958;2023-02-01T01:56:13;97725.41;;;5.45;77.26
9746;BME280;4912;50.836;12.958;2023-02-01T01:58:44;97723.97;;;5.40;77.53
9746;BME280;4912;50.836;12.958;2023-02-01T02:01:14;97730.91;;;5.45;77.19
9746;BME280;4912;50.836;12.958;2023-02-01T02:03:49;97726.72;;;5.40;76.66
9746;BME280;4912;50.836;12.958;2023-02-01T02:06:27;97721.47;;;5.46;76.28
9746;BME280;4912;50.836;12.958;2023-02-01T02:09:04;97715.78;;;5.53;76.53
9746;BME280;4912;50.836;12.958;2023-02-01T02:11:34;97718.22;;;5.63;75.81
9746;BME280;4912;50.836;12.958;2023-02-01T02:14:07;97724.13;;;5.62;75.37
9746;BME280;4912;50.836;12.958;2023-02-01T02:17:06;97718.84;;;5.55;75.60
9746;BME280;4912;50.836;12.958;2023-02-01T02:23:38;97697.88;;;5.35;75.11
9746;BME280;4912;50.836;12.958;2023-02-01T02:26:43;97706.41;;;5.38;75.43
9746;BME280;4912;50.836;12.958;2023-02-01T02:33:03;97693.34;;;5.29;75.61
9746;BME280;4912;50.836;12.958;2023-02-01T02:35:58;97694.53;;;5.28;75.75
9746;BME280;4912;50.836;12.958;2023-02-01T02:38:33;97697.06;;;5.22;75.54
9746;BME280;4912;50.836;12.958;2023-02-01T02:41:13;97687.81;;;5.16;75.33
9746;BME280;4912;50.836;12.958;2023-02-01T02:44:12;97683.19;;;5.13;75.51
9746;BME280;4912;50.836;12.958;2023-02-01T02:47:00;97671.56;;;5.09;75.41
9746;BME280;4912;50.836;12.958;2023-02-01T02:49:49;97676.09;;;5.16;74.99
9746;BME280;4912;50.836;12.958;2023-02-01T02:52:42;97664.34;;;5.15;74.98
9746;BME280;4912;50.836;12.958;2023-02-01T02:55:28;97664.56;;;5.21;74.50
9746;BME280;4912;50.836;12.958;2023-02-01T02:58:01;97664.03;;;5.26;74.19
9746;BME280;4912;50.836;12.958;2023-02-01T03:00:45;97662.59;;;5.21;74.16
9746;BME280;4912;50.836;12.958;2023-02-01T03:03:28;97662.72;;;5.18;73.85
9746;BME280;4912;50.836;12.958;2023-02-01T03:06:13;97666.88;;;5.22;73.58
9746;BME280;4912;50.836;12.958;2023-02-01T03:08:50;97664.91;;;5.23;73.38
9746;BME280;4912;50.836;12.958;2023-02-01T03:11:24;97670.50;;;5.19;73.54
9746;BME280;4912;50.836;12.958;2023-02-01T03:14:18;97669.72;;;5.19;73.69
9746;BME280;4912;50.836;12.958;2023-02-01T03:16:49;97663.22;;;5.13;73.98
9746;BME280;4912;50.836;12.958;2023-02-01T03:19:23;97663.34;;;5.09;74.37
9746;BME280;4912;50.836;12.958;2023-02-01T03:21:58;97661.78;;;5.08;74.44
9746;BME280;4912;50.836;12.958;2023-02-01T03:24:38;97659.94;;;5.05;74.98
9746;BME280;4912;50.836;12.958;2023-02-01T03:27:13;97666.97;;;5.06;75.07
9746;BME280;4912;50.836;12.958;2023-02-01T03:29:50;97670.22;;;5.01;75.60
9746;BME280;4912;50.836;12.958;2023-02-01T03:32:25;97671.75;;;5.02;75.53
9746;BME280;4912;50.836;12.958;2023-02-01T03:34:56;97657.84;;;5.09;75.69
9746;BME280;4912;50.836;12.958;2023-02-01T03:37:27;97660.16;;;5.11;75.63
9746;BME280;4912;50.836;12.958;2023-02-01T03:40:05;97661.47;;;5.06;75.50
9746;BME280;4912;50.836;12.958;2023-02-01T03:42:42;97660.47;;;5.00;75.88
9746;BME280;4912;50.836;12.958;2023-02-01T03:45:18;97651.47;;;5.00;76.35
9746;BME280;4912;50.836;12.958;2023-02-01T03:47:54;97662.75;;;5.02;75.94
9746;BME280;4912;50.836;12.958;2023-02-01T03:50:29;97663.53;;;5.02;75.85
9746;BME280;4912;50.836;12.958;2023-02-01T03:53:03;97660.78;;;5.02;75.74
9746;BME280;4912;50.836;12.958;2023-02-01T03:55:39;97645.88;;;5.03;76.02
9746;BME280;4912;50.836;12.958;2023-02-01T03:58:12;97661.75;;;4.95;75.73
9746;BME280;4912;50.836;12.958;2023-02-01T04:00:45;97660.31;;;4.91;75.58
9746;BME280;4912;50.836;12.958;2023-02-01T04:03:20;97658.47;;;4.88;76.09
9746;BME280;4912;50.836;12.958;2023-02-01T04:05:52;97651.09;;;4.85;76.00
9746;BME280;4912;50.836;12.958;2023-02-01T04:08:26;97643.09;;;4.90;75.87
9746;BME280;4912;50.836;12.958;2023-02-01T04:10:59;97649.34;;;4.91;75.90
9746;BME280;4912;50.836;12.958;2023-02-01T04:13:29;97640.06;;;5.01;75.22
9746;BME280;4912;50.836;12.958;2023-02-01T04:16:00;97634.56;;;5.01;74.97
9746;BME280;4912;50.836;12.958;2023-02-01T04:18:30;97628.78;;;4.99;75.23
9746;BME280;4912;50.836;12.958;2023-02-01T04:21:00;97637.00;;;4.99;74.98
9746;BME280;4912;50.836;12.958;2023-02-01T04:23:31;97644.44;;;4.99;74.89
9746;BME280;4912;50.836;12.958;2023-02-01T04:26:05;97634.25;;;4.99;74.79
9746;BME280;4912;50.836;12.958;2023-02-01T04:28:36;97625.78;;;4.93;74.41
9746;BME280;4912;50.836;12.958;2023-02-01T04:31:06;97621.59;;;4.89;74.11
9746;BME280;4912;50.836;12.958;2023-02-01T04:33:37;97632.47;;;4.92;73.93
9746;BME280;4912;50.836;12.958;2023-02-01T04:36:07;97628.97;;;4.92;73.94
9746;BME280;4912;50.836;12.958;2023-02-01T04:38:38;97625.09;;;4.89;74.27
9746;BME280;4912;50.836;12.958;2023-02-01T04:41:11;97623.25;;;4.86;74.16
9746;BME280;4912;50.836;12.958;2023-02-01T04:43:41;97618.13;;;4.88;74.17
9746;BME280;4912;50.836;12.958;2023-02-01T04:46:11;97628.31;;;4.88;73.99
9746;BME280;4912;50.836;12.958;2023-02-01T04:48:42;97619.44;;;4.97;74.19
9746;BME280;4912;50.836;12.958;2023-02-01T04:51:13;97612.31;;;4.99;73.70
9746;BME280;4912;50.836;12.958;2023-02-01T04:53:45;97607.69;;;4.96;73.77
9746;BME280;4912;50.836;12.958;2023-02-01T04:56:18;97607.81;;;4.92;73.83
9746;BME280;4912;50.836;12.958;2023-02-01T04:58:49;97598.03;;;4.91;73.94
9746;BME280;4912;50.836;12.958;2023-02-01T05:01:19;97599.94;;;4.94;73.87
9746;BME280;4912;50.836;12.958;2023-02-01T05:03:51;97593.56;;;4.98;73.82
9746;BME280;4912;50.836;12.958;2023-02-01T05:06:21;97587.97;;;5.01;73.67
9746;BME280;4912;50.836;12.958;2023-02-01T05:08:52;97584.47;;;5.01;73.76
9746;BME280;4912;50.836;12.958;2023-02-01T05:11:25;97581.81;;;4.97;73.84
9746;BME280;4912;50.836;12.958;2023-02-01T05:14:08;97577.31;;;4.90;74.35
9746;BME280;4912;50.836;12.958;2023-02-01T05:16:38;97571.63;;;4.98;74.56
9746;BME280;4912;50.836;12.958;2023-02-01T05:19:08;97567.78;;;4.95;74.57
9746;BME280;4912;50.836;12.958;2023-02-01T05:21:39;97560.78;;;4.94;75.34
9746;BME280;4912;50.836;12.958;2023-02-01T05:24:10;97555.59;;;4.96;75.58
9746;BME280;4912;50.836;12.958;2023-02-01T05:26:44;97557.25;;;4.93;75.67
9746;BME280;4912;50.836;12.958;2023-02-01T05:29:16;97551.88;;;4.90;76.33
9746;BME280;4912;50.836;12.958;2023-02-01T05:31:47;97540.28;;;4.99;76.32
9746;BME280;4912;50.836;12.958;2023-02-01T05:34:18;97530.94;;;4.96;76.48
9746;BME280;4912;50.836;12.958;2023-02-01T05:36:49;97540.34;;;4.95;76.64
9746;BME280;4912;50.836;12.958;2023-02-01T05:39:19;97535.75;;;4.92;77.27
9746;BME280;4912;50.836;12.958;2023-02-01T05:41:52;97540.59;;;4.88;77.56
9746;BME280;4912;50.836;12.958;2023-02-01T05:44:22;97535.53;;;4.86;77.73
9746;BME280;4912;50.836;12.958;2023-02-01T05:46:53;97542.66;;;4.84;78.19
9746;BME280;4912;50.836;12.958;2023-02-01T05:49:23;97536.63;;;4.89;78.09
9746;BME280;4912;50.836;12.958;2023-02-01T05:51:53;97546.38;;;4.90;78.18
9746;BME280;4912;50.836;12.958;2023-02-01T05:54:26;97526.44;;;4.89;78.45
9746;BME280;4912;50.836;12.958;2023-02-01T05:56:59;97541.03;;;4.86;78.80
9746;BME280;4912;50.836;12.958;2023-02-01T05:59:30;97527.97;;;4.90;78.91
9746;BME280;4912;50.836;12.958;2023-02-01T06:02:00;97528.94;;;4.84;79.28
9746;BME280;4912;50.836;12.958;2023-02-01T06:04:30;97526.66;;;4.82;79.43
9746;BME280;4912;50.836;12.958;2023-02-01T06:07:01;97545.84;;;4.82;79.51
9746;BME280;4912;50.836;12.958;2023-02-01T06:09:34;97530.59;;;4.81;80.15
9746;BME280;4912;50.836;12.958;2023-02-01T06:12:08;97533.66;;;4.83;80.13
9746;BME280;4912;50.836;12.958;2023-02-01T06:14:39;97536.41;;;4.83;80.52
9746;BME280;4912;50.836;12.958;2023-02-01T06:17:10;97530.69;;;4.78;80.47
9746;BME280;4912;50.836;12.958;2023-02-01T06:19:40;97528.41;;;4.89;80.13
9746;BME280;4912;50.836;12.958;2023-02-01T06:22:12;97534.75;;;4.86;80.32
9746;BME280;4912;50.836;12.958;2023-02-01T06:24:43;97524.34;;;4.81;80.77
9746;BME280;4912;50.836;12.958;2023-02-01T06:27:16;97523.69;;;4.77;81.04
9746;BME280;4912;50.836;12.958;2023-02-01T06:29:46;97517.75;;;4.78;81.60
9746;BME280;4912;50.836;12.958;2023-02-01T06:32:18;97530.25;;;4.79;81.42
9746;BME280;4912;50.836;12.958;2023-02-01T06:34:49;97531.69;;;4.84;81.82
9746;BME280;4912;50.836;12.958;2023-02-01T06:37:19;97534.53;;;4.80;81.81
9746;BME280;4912;50.836;12.958;2023-02-01T06:39:51;97538.06;;;4.81;82.27
9746;BME280;4912;50.836;12.958;2023-02-01T06:42:24;97538.59;;;4.76;82.62
9746;BME280;4912;50.836;12.958;2023-02-01T06:44:55;97535.09;;;4.75;82.56
9746;BME280;4912;50.836;12.958;2023-02-01T06:47:25;97541.88;;;4.71;83.06
9746;BME280;4912;50.836;12.958;2023-02-01T06:49:56;97544.06;;;4.76;83.46
9746;BME280;4912;50.836;12.958;2023-02-01T06:52:26;97539.44;;;4.73;83.40
9746;BME280;4912;50.836;12.958;2023-02-01T06:54:56;97540.00;;;4.68;83.90
9746;BME280;4912;50.836;12.958;2023-02-01T06:57:29;97539.56;;;4.69;83.83
9746;BME280;4912;50.836;12.958;2023-02-01T07:00:02;97532.88;;;4.70;83.85
9746;BME280;4912;50.836;12.958;2023-02-01T07:02:33;97529.16;;;4.64;83.56
9746;BME280;4912;50.836;12.958;2023-02-01T07:05:05;97524.19;;;4.59;83.57
9746;BME280;4912;50.836;12.958;2023-02-01T07:07:36;97528.47;;;4.60;83.30
9746;BME280;4912;50.836;12.958;2023-02-01T07:10:07;97519.47;;;4.60;83.45
9746;BME280;4912;50.836;12.958;2023-02-01T07:12:41;97514.97;;;4.66;83.37
9746;BME280;4912;50.836;12.958;2023-02-01T07:15:11;97511.03;;;4.67;83.07
9746;BME280;4912;50.836;12.958;2023-02-01T07:17:41;97511.19;;;4.76;82.49
9746;BME280;4912;50.836;12.958;2023-02-01T07:20:13;97514.13;;;4.69;81.93
9746;BME280;4912;50.836;12.958;2023-02-01T07:22:44;97515.22;;;4.71;81.78
9746;BME280;4912;50.836;12.958;2023-02-01T07:25:14;97517.53;;;4.73;81.58
9746;BME280;4912;50.836;12.958;2023-02-01T07:27:47;97508.34;;;4.79;81.02
9746;BME280;4912;50.836;12.958;2023-02-01T07:30:18;97508.00;;;4.77;80.68
9746;BME280;4912;50.836;12.958;2023-02-01T07:32:49;97510.22;;;4.82;80.12
9746;BME280;4912;50.836;12.958;2023-02-01T07:35:19;97502.41;;;4.81;79.74
9746;BME280;4912;50.836;12.958;2023-02-01T07:37:50;97515.34;;;4.80;79.10
9746;BME280;4912;50.836;12.958;2023-02-01T07:40:20;97505.50;;;4.83;78.87
9746;BME280;4912;50.836;12.958;2023-02-01T07:42:58;97494.84;;;4.85;78.57
9746;BME280;4912;50.836;12.958;2023-02-01T07:45:28;97491.56;;;4.90;77.90
9746;BME280;4912;50.836;12.958;2023-02-01T07:48:03;97496.50;;;4.95;77.66
9746;BME280;4912;50.836;12.958;2023-02-01T07:50:34;97501.25;;;4.94;77.40
9746;BME280;4912;50.836;12.958;2023-02-01T07:53:04;97483.34;;;4.90;77.14
9746;BME280;4912;50.836;12.958;2023-02-01T07:55:37;97485.66;;;4.91;77.26
9746;BME280;4912;50.836;12.958;2023-02-01T07:58:10;97486.97;;;4.87;76.94
9746;BME280;4912;50.836;12.958;2023-02-01T08:00:40;97490.47;;;4.87;77.09
9746;BME280;4912;50.836;12.958;2023-02-01T08:03:23;97493.53;;;4.89;77.08
9746;BME280;4912;50.836;12.958;2023-02-01T08:05:54;97489.16;;;4.92;76.71
9746;BME280;4912;50.836;12.958;2023-02-01T08:08:24;97495.50;;;4.89;76.31
9746;BME280;4912;50.836;12.958;2023-02-01T08:10:57;97476.31;;;4.89;76.31
9746;BME280;4912;50.836;12.958;2023-02-01T08:13:30;97482.03;;;4.94;76.21
9746;BME280;4912;50.836;12.958;2023-02-01T08:16:03;97465.69;;;5.04;75.88
9746;BME280;4912;50.836;12.958;2023-02-01T08:18:35;97470.75;;;5.05;74.97
9746;BME280;4912;50.836;12.958;2023-02-01T08:21:08;97476.53;;;5.07;74.78
9746;BME280;4912;50.836;12.958;2023-02-01T08:23:41;97472.50;;;5.12;74.05
9746;BME280;4912;50.836;12.958;2023-02-01T08:26:14;97471.81;;;5.08;73.61
9746;BME280;4912;50.836;12.958;2023-02-01T08:28:49;97465.69;;;5.16;73.54
9746;BME280;4912;50.836;12.958;2023-02-01T08:31:23;97467.78;;;5.12;73.32
9746;BME280;4912;50.836;12.958;2023-02-01T08:33:56;97468.44;;;5.16;72.90
9746;BME280;4912;50.836;12.958;2023-02-01T08:36:30;97474.34;;;5.27;72.13
9746;BME280;4912;50.836;12.958;2023-02-01T08:39:01;97466.19;;;5.36;71.80
9746;BME280;4912;50.836;12.958;2023-02-01T08:41:36;97470.91;;;5.36;70.92
9746;BME280;4912;50.836;12.958;2023-02-01T08:44:09;97467.53;;;5.45;70.79
9746;BME280;4912;50.836;12.958;2023-02-01T08:46:39;97476.84;;;5.47;69.95
9746;BME280;4912;50.836;12.958;2023-02-01T08:49:10;97477.69;;;5.57;69.83
9746;BME280;4912;50.836;12.958;2023-02-01T08:51:40;97473.75;;;5.58;69.31
9746;BME280;4912;50.836;12.958;2023-02-01T08:54:10;97458.16;;;5.55;69.80
9746;BME280;4912;50.836;12.958;2023-02-01T08:56:41;97460.34;;;5.60;70.51
9746;BME280;4912;50.836;12.958;2023-02-01T08:59:14;97462.81;;;5.45;72.04
9746;BME280;4912;50.836;12.958;2023-02-01T09:01:44;97463.34;;;5.53;73.17
9746;BME280;4912;50.836;12.958;2023-02-01T09:04:14;97478.81;;;5.47;72.63
9746;BME280;4912;50.836;12.958;2023-02-01T09:06:45;97465.22;;;5.43;73.22
9746;BME280;4912;50.836;12.958;2023-02-01T09:09:15;97468.22;;;5.23;76.09
9746;BME280;4912;50.836;12.958;2023-02-01T09:11:45;97471.72;;;5.11;79.48
9746;BME280;4912;50.836;12.958;2023-02-01T09:14:19;97468.31;;;5.20;82.29
9746;BME280;4912;50.836;12.958;2023-02-01T09:16:50;97472.28;;;4.93;84.49
9746;BME280;4912;50.836;12.958;2023-02-01T09:19:21;97472.25;;;4.68;88.15
9746;BME280;4912;50.836;12.958;2023-02-01T09:21:53;97476.97;;;4.68;89.55
9746;BME280;4912;50.836;12.958;2023-02-01T09:24:24;97474.56;;;4.70;90.00
9746;BME280;4912;50.836;12.958;2023-02-01T09:26:54;97475.44;;;4.67;90.43
9746;BME280;4912;50.836;12.958;2023-02-01T09:29:28;97482.44;;;4.68;91.36
9746;BME280;4912;50.836;12.958;2023-02-01T09:31:58;97486.06;;;4.77;92.02
9746;BME280;4912;50.836;12.958;2023-02-01T09:34:31;97485.22;;;4.80;91.69
9746;BME280;4912;50.836;12.958;2023-02-01T09:37:01;97490.91;;;4.73;92.32
9746;BME280;4912;50.836;12.958;2023-02-01T09:39:32;97475.22;;;4.74;92.13
9746;BME280;4912;50.836;12.958;2023-02-01T09:42:12;97494.06;;;4.72;91.49
9746;BME280;4912;50.836;12.958;2023-02-01T09:45:03;97498.53;;;4.66;92.69
9746;BME280;4912;50.836;12.958;2023-02-01T09:47:45;97480.91;;;4.67;92.24
9746;BME280;4912;50.836;12.958;2023-02-01T09:50:19;97476.97;;;4.80;92.58
9746;BME280;4912;50.836;12.958;2023-02-01T09:52:55;97479.06;;;4.89;91.94
9746;BME280;4912;50.836;12.958;2023-02-01T09:55:34;97486.75;;;4.94;90.65
9746;BME280;4912;50.836;12.958;2023-02-01T09:58:12;97477.44;;;5.04;89.98
9746;BME280;4912;50.836;12.958;2023-02-01T10:00:52;97489.16;;;5.05;88.55
9746;BME280;4912;50.836;12.958;2023-02-01T10:03:27;97502.66;;;5.12;86.50
9746;BME280;4912;50.836;12.958;2023-02-01T10:06:14;97489.47;;;5.19;85.31
9746;BME280;4912;50.836;12.958;2023-02-01T10:09:16;97501.78;;;5.27;85.04
9746;BME280;4912;50.836;12.958;2023-02-01T10:12:22;97500.56;;;5.28;84.65
9746;BME280;4912;50.836;12.958;2023-02-01T10:15:13;97518.03;;;5.34;84.49
9746;BME280;4912;50.836;12.958;2023-02-01T10:18:00;97500.44;;;5.45;83.91
9746;BME280;4912;50.836;12.958;2023-02-01T10:20:47;97530.19;;;5.46;82.37
9746;BME280;4912;50.836;12.958;2023-02-01T10:23:42;97530.84;;;5.50;82.98
9746;BME280;4912;50.836;12.958;2023-02-01T10:26:45;97534.78;;;5.62;83.08
9746;BME280;4912;50.836;12.958;2023-02-01T10:29:22;97523.47;;;5.60;81.86
9746;BME280;4912;50.836;12.958;2023-02-01T10:31:55;97522.47;;;5.54;81.27
9746;BME280;4912;50.836;12.958;2023-02-01T10:34:31;97517.75;;;5.67;81.37
9746;BME280;4912;50.836;12.958;2023-02-01T10:37:17;97523.97;;;5.80;82.10
9746;BME280;4912;50.836;12.958;2023-02-01T10:39:55;97538.47;;;5.81;80.66
9746;BME280;4912;50.836;12.958;2023-02-01T10:42:27;97531.38;;;5.70;79.40
9746;BME280;4912;50.836;12.958;2023-02-01T10:45:02;97535.94;;;5.86;79.87
9746;BME280;4912;50.836;12.958;2023-02-01T10:47:34;97530.53;;;5.95;77.70
9746;BME280;4912;50.836;12.958;2023-02-01T10:50:15;97527.69;;;5.99;76.43
9746;BME280;4912;50.836;12.958;2023-02-01T10:52:52;97535.13;;;6.11;75.25
9746;BME280;4912;50.836;12.958;2023-02-01T10:55:33;97531.81;;;6.16;74.16
9746;BME280;4912;50.836;12.958;2023-02-01T10:58:15;97531.56;;;6.23;72.19
9746;BME280;4912;50.836;12.958;2023-02-01T11:00:48;97539.00;;;6.35;72.43
9746;BME280;4912;50.836;12.958;2023-02-01T11:03:36;97534.38;;;6.54;70.48
9746;BME280;4912;50.836;12.958;2023-02-01T11:06:18;97523.53;;;6.50;69.39
9746;BME280;4912;50.836;12.958;2023-02-01T11:08:53;97538.03;;;6.51;68.38
9746;BME280;4912;50.836;12.958;2023-02-01T11:11:25;97542.00;;;6.50;68.40
9746;BME280;4912;50.836;12.958;2023-02-01T11:13:58;97542.84;;;6.60;68.09
9746;BME280;4912;50.836;12.958;2023-02-01T11:16:38;97537.47;;;6.56;68.41
9746;BME280;4912;50.836;12.958;2023-02-01T11:19:14;97513.06;;;6.58;67.89
9746;BME280;4912;50.836;12.958;2023-02-01T11:21:49;97535.53;;;6.66;67.70
9746;BME280;4912;50.836;12.958;2023-02-01T11:24:23;97510.69;;;7.00;66.88
9746;BME280;4912;50.836;12.958;2023-02-01T11:26:56;97531.78;;;7.03;66.01
9746;BME280;4912;50.836;12.958;2023-02-01T11:29:36;97516.66;;;6.98;66.29
9746;BME280;4912;50.836;12.958;2023-02-01T11:32:10;97518.72;;;7.16;66.22
9746;BME280;4912;50.836;12.958;2023-02-01T11:34:44;97505.75;;;7.26;66.49
9746;BME280;4912;50.836;12.958;2023-02-01T11:37:24;97519.25;;;7.33;66.18
9746;BME280;4912;50.836;12.958;2023-02-01T11:39:58;97509.72;;;7.25;66.20
9746;BME280;4912;50.836;12.958;2023-02-01T11:42:29;97518.88;;;7.13;66.21
9746;BME280;4912;50.836;12.958;2023-02-01T11:45:19;97495.63;;;7.14;66.78
9746;BME280;4912;50.836;12.958;2023-02-01T11:47:52;97509.25;;;7.17;66.78
9746;BME280;4912;50.836;12.958;2023-02-01T11:50:30;97494.84;;;7.13;66.63
9746;BME280;4912;50.836;12.958;2023-02-01T11:53:22;97498.16;;;6.99;66.15
9746;BME280;4912;50.836;12.958;2023-02-01T11:56:08;97500.75;;;7.03;65.76
9746;BME280;4912;50.836;12.958;2023-02-01T11:58:56;97478.16;;;7.08;65.50
9746;BME280;4912;50.836;12.958;2023-02-01T12:01:49;97490.78;;;7.27;64.92
9746;BME280;4912;50.836;12.958;2023-02-01T12:04:53;97491.34;;;7.13;64.73
9746;BME280;4912;50.836;12.958;2023-02-01T12:07:51;97501.16;;;7.23;65.15
9746;BME280;4912;50.836;12.958;2023-02-01T12:10:38;97490.44;;;7.16;65.03
9746;BME280;4912;50.836;12.958;2023-02-01T12:13:29;97486.19;;;7.24;65.22
9746;BME280;4912;50.836;12.958;2023-02-01T12:16:13;97491.44;;;7.00;64.30
9746;BME280;4912;50.836;12.958;2023-02-01T12:19:11;97480.88;;;6.98;64.77
9746;BME280;4912;50.836;12.958;2023-02-01T12:21:55;97479.94;;;6.92;64.51
9746;BME280;4912;50.836;12.958;2023-02-01T12:28:04;97482.06;;;6.88;64.99
9746;BME280;4912;50.836;12.958;2023-02-01T12:31:00;97485.03;;;7.03;65.25
9746;BME280;4912;50.836;12.958;2023-02-01T12:34:11;97480.28;;;7.04;64.65
9746;BME280;4912;50.836;12.958;2023-02-01T12:36:58;97477.56;;;7.04;64.19
9746;BME280;4912;50.836;12.958;2023-02-01T12:39:39;97491.66;;;7.15;64.85
9746;BME280;4912;50.836;12.958;2023-02-01T12:42:16;97469.34;;;7.13;63.42
9746;BME280;4912;50.836;12.958;2023-02-01T12:44:56;97475.88;;;7.06;63.30
9746;BME280;4912;50.836;12.958;2023-02-01T12:47:35;97479.09;;;7.05;63.22
9746;BME280;4912;50.836;12.958;2023-02-01T12:50:15;97464.13;;;7.06;62.91
9746;BME280;4912;50.836;12.958;2023-02-01T12:52:50;97462.16;;;7.15;63.18
9746;BME280;4912;50.836;12.958;2023-02-01T12:55:24;97455.00;;;7.18;62.50
9746;BME280;4912;50.836;12.958;2023-02-01T12:58:07;97466.41;;;7.07;62.26
9746;BME280;4912;50.836;12.958;2023-02-01T13:00:49;97467.50;;;7.19;61.87
9746;BME280;4912;50.836;12.958;2023-02-01T13:03:29;97471.00;;;7.10;61.50
9746;BME280;4912;50.836;12.958;2023-02-01T13:06:12;97465.34;;;7.14;61.28
9746;BME280;4912;50.836;12.958;2023-02-01T13:08:46;97467.03;;;7.11;61.18
9746;BME280;4912;50.836;12.958;2023-02-01T13:11:22;97445.19;;;7.17;60.11
9746;BME280;4912;50.836;12.958;2023-02-01T13:14:01;97467.22;;;7.26;60.36
9746;BME280;4912;50.836;12.958;2023-02-01T13:16:41;97454.06;;;7.12;60.71
9746;BME280;4912;50.836;12.958;2023-02-01T13:19:17;97457.09;;;7.14;60.88
9746;BME280;4912;50.836;12.958;2023-02-01T13:21:56;97454.22;;;7.17;60.33
9746;BME280;4912;50.836;12.958;2023-02-01T13:24:33;97450.13;;;7.31;60.73
9746;BME280;4912;50.836;12.958;2023-02-01T13:27:08;97432.38;;;7.23;60.29
9746;BME280;4912;50.836;12.958;2023-02-01T13:29:46;97440.47;;;7.17;60.57
9746;BME280;4912;50.836;12.958;2023-02-01T13:32:46;97426.84;;;7.14;60.93
9746;BME280;4912;50.836;12.958;2023-02-01T13:36:06;97444.59;;;7.13;60.66
9746;BME280;4912;50.836;12.958;2023-02-01T13:42:16;97433.03;;;6.96;61.36
9746;BME280;4912;50.836;12.958;2023-02-01T13:44:50;97436.63;;;7.06;61.34
9746;BME280;4912;50.836;12.958;2023-02-01T13:47:26;97433.53;;;7.04;61.14
9746;BME280;4912;50.836;12.958;2023-02-01T13:50:04;97433.81;;;6.96;60.54
9746;BME280;4912;50.836;12.958;2023-02-01T13:52:44;97435.97;;;7.02;61.61
9746;BME280;4912;50.836;12.958;2023-02-01T13:55:29;97449.69;;;6.92;61.30
9746;BME280;4912;50.836;12.958;2023-02-01T13:58:06;97438.53;;;6.87;61.46
9746;BME280;4912;50.836;12.958;2023-02-01T14:00:43;97430.19;;;6.99;61.34
9746;BME280;4912;50.836;12.958;2023-02-01T14:03:21;97440.56;;;7.05;61.25
9746;BME280;4912;50.836;12.958;2023-02-01T14:06:14;97435.63;;;6.90;61.34
9746;BME280;4912;50.836;12.958;2023-02-01T14:09:12;97437.72;;;6.77;61.99
9746;BME280;4912;50.836;12.958;2023-02-01T14:11:46;97433.13;;;6.74;61.50
9746;BME280;4912;50.836;12.958;2023-02-01T14:14:50;97425.72;;;6.62;62.29
9746;BME280;4912;50.836;12.958;2023-02-01T14:17:33;97420.81;;;6.57;62.36
9746;BME280;4912;50.836;12.958;2023-02-01T14:23:22;97404.59;;;6.50;62.76
9746;BME280;4912;50.836;12.958;2023-02-01T14:26:07;97404.50;;;6.63;63.10
9746;BME280;4912;50.836;12.958;2023-02-01T14:29:01;97398.50;;;6.55;62.79